.
WxDataArchive / Data Records for 2008-12-03
2008-12-02 December 2008 2008-12-04

Data Records for Wednesday, 03 December 2008

Time	Temp	Chill	HIndex	Humid	Dewpt	 Wind 	HiWind	WindDir	Rain 	Barom 
-----	----	-----	------	-----	-----	------	------	-------	-----	----- 
00:00	27.0	27.0	27.0	78	21.1	1	4	90	0.00	30.013 
00:05	27.0	27.0	27.0	78	21.1	1	4	270	0.00	30.012 
00:10	27.2	27.2	27.2	78	21.3	1	5	68	0.00	30.017 
00:15	27.2	27.2	27.2	78	21.3	1	3	270	0.00	30.021 
00:20	27.2	27.2	27.2	78	21.3	1	3	315	0.00	30.024 
00:25	27.3	27.3	27.3	78	21.4	0	2	315	0.00	30.019 
00:30	27.3	27.3	27.3	78	21.4	1	3	90	0.00	30.017 
00:35	27.3	27.3	27.3	78	21.4	1	4	68	0.00	30.015 
00:40	27.5	27.5	27.5	78	21.6	0	4	90	0.00	30.015 
00:45	27.6	27.6	27.6	78	21.7	0	2	90	0.00	30.018 
00:50	27.6	27.6	27.6	78	21.7	1	3	270	0.00	30.025 
00:55	27.8	27.8	27.8	78	21.8	0	2	270	0.00	30.025 
01:00	27.8	27.8	27.8	78	21.8	0	1	270	0.00	30.023 
01:05	27.8	27.8	27.8	78	21.8	0	1	270	0.00	30.021 
01:10	27.8	27.8	27.8	78	21.8	0	1	270	0.00	30.019 
01:15	27.6	27.6	27.6	78	21.7	0	3	248	0.00	30.020 
01:20	27.5	27.5	27.5	78	21.6	0	4	248	0.00	30.024 
01:25	27.3	27.3	27.3	78	21.4	0	2	248	0.00	30.027 
01:30	27.2	27.2	27.2	78	21.3	0	1	248	0.00	30.021 
01:35	27.0	27.0	27.0	79	21.4	0	2	248	0.00	30.020 
01:40	27.0	27.0	27.0	79	21.4	0	1	135	0.00	30.016 
01:45	26.9	26.9	26.9	79	21.3	0	1	135	0.00	30.017 
01:50	26.7	26.7	26.7	79	21.1	0	1	135	0.00	30.019 
01:55	26.6	26.6	26.6	80	21.3	0	1	135	0.00	30.016 
02:00	26.6	26.6	26.6	80	21.3	0	1	135	0.00	30.016 
02:05	26.6	26.6	26.6	80	21.3	0	2	135	0.00	30.014 
02:10	26.7	26.7	26.7	80	21.4	0	2	135	0.00	30.009 
02:15	26.7	26.7	26.7	80	21.4	0	1	135	0.00	30.009 
02:20	26.7	26.7	26.7	81	21.7	0	3	90	0.00	30.009 
02:25	26.9	26.9	26.9	81	21.9	0	2	90	0.00	30.010 
02:30	27.0	27.0	27.0	81	22.0	0	1	90	0.00	30.014 
02:35	27.2	27.2	27.2	81	22.2	0	1	90	0.00	30.013 
02:40	27.3	27.3	27.3	81	22.3	0	2	90	0.00	30.011 
02:45	27.5	27.5	27.5	81	22.4	0	1	90	0.00	30.008 
02:50	27.6	27.6	27.6	81	22.5	0	2	90	0.00	30.007 
02:55	27.9	27.9	27.9	81	22.8	0	1	90	0.00	30.003 
03:00	28.1	28.1	28.1	81	23.0	0	1	90	0.00	30.001 
03:05	28.2	28.2	28.2	81	23.1	0	2	90	0.00	30.001 
03:10	28.4	28.4	28.4	81	23.3	1	3	90	0.00	30.001 
03:15	28.7	28.7	28.7	80	23.3	0	2	315	0.00	29.997 
03:20	29.0	29.0	29.0	80	23.6	1	3	315	0.00	29.997 
03:25	29.1	29.1	29.1	80	23.7	0	3	270	0.00	29.997 
03:30	29.4	29.4	29.4	79	23.7	0	2	292	0.00	29.991 
03:35	29.5	29.5	29.5	79	23.8	1	4	225	0.00	29.990 
03:40	29.8	29.8	29.8	78	23.8	0	3	225	0.00	29.989 
03:45	30.1	30.1	30.1	78	24.1	1	3	225	0.00	29.989 
03:50	30.3	30.3	30.3	77	24.0	1	3	225	0.00	29.988 
03:55	30.4	30.4	30.4	77	24.1	0	3	248	0.00	29.985 
04:00	30.6	30.6	30.6	77	24.3	0	3	248	0.00	29.988 
04:05	30.6	30.6	30.6	77	24.3	0	2	248	0.00	29.987 
04:10	30.6	30.6	30.6	77	24.3	0	2	248	0.00	29.983 
04:15	30.6	30.6	30.6	77	24.3	0	1	248	0.00	29.981 
04:20	30.4	30.4	30.4	77	24.1	0	2	248	0.00	29.982 
04:25	30.6	30.6	30.6	77	24.3	0	1	270	0.00	29.983 
04:30	30.7	30.7	30.7	77	24.4	0	2	248	0.00	29.980 
04:35	31.0	31.0	31.0	77	24.7	1	3	248	0.00	29.977 
04:40	31.5	31.5	31.5	76	24.8	1	5	270	0.00	29.975 
04:45	31.9	31.9	31.9	75	24.9	1	4	248	0.00	29.976 
04:50	32.2	32.2	32.2	74	24.9	1	3	292	0.00	29.972 
04:55	32.2	32.2	32.2	74	24.9	0	2	315	0.00	29.971 
05:00	32.2	32.2	32.2	74	24.9	0	2	315	0.00	29.972 
05:05	32.2	32.2	32.2	74	24.9	1	6	270	0.00	29.974 
05:10	32.4	32.4	32.4	74	25.1	1	5	225	0.00	29.973 
05:15	32.4	32.4	32.4	73	24.7	1	9	248	0.00	29.970 
05:20	32.5	32.5	32.5	73	24.8	1	3	248	0.00	29.967 
05:25	32.4	32.4	32.4	73	24.7	1	4	248	0.00	29.967 
05:30	32.2	32.2	32.2	73	24.5	1	4	270	0.00	29.967 
05:35	32.2	32.2	32.2	74	24.9	1	5	225	0.00	29.968 
05:40	32.2	32.2	32.2	74	24.9	1	5	248	0.00	29.965 
05:45	32.2	32.2	32.2	74	24.9	2	7	248	0.00	29.966 
05:50	32.4	32.4	32.4	73	24.7	1	4	248	0.00	29.967 
05:55	32.2	32.2	32.2	74	24.9	1	5	270	0.00	29.967 
06:00	32.4	32.4	32.4	74	25.1	1	9	270	0.00	29.965 
06:05	32.4	32.4	32.4	73	24.7	1	7	248	0.00	29.965 
06:10	32.4	32.4	32.4	73	24.7	1	3	225	0.00	29.965 
06:15	32.4	32.4	32.4	74	25.1	1	3	248	0.00	29.963 
06:20	32.4	32.4	32.4	74	25.1	1	7	248	0.00	29.962 
06:25	32.4	32.4	32.4	74	25.1	1	3	248	0.00	29.956 
06:30	32.4	32.4	32.4	74	25.1	1	6	248	0.00	29.952 
06:35	32.4	32.4	32.4	74	25.1	2	7	112	0.00	29.949 
06:40	32.5	32.5	32.5	74	25.2	2	6	270	0.00	29.952 
06:45	32.8	32.8	32.8	73	25.1	2	8	248	0.00	29.954 
06:50	32.8	32.8	32.8	73	25.1	1	4	248	0.00	29.954 
06:55	32.8	32.8	32.8	73	25.1	1	4	248	0.00	29.951 
07:00	32.8	32.8	32.8	73	25.1	1	4	248	0.00	29.949 
07:05	32.8	32.8	32.8	74	25.4	1	5	248	0.00	29.948 
07:10	32.8	32.8	32.8	74	25.4	1	5	270	0.00	29.947 
07:15	32.8	32.8	32.8	74	25.4	1	6	270	0.00	29.949 
07:20	32.8	32.8	32.8	74	25.4	2	5	248	0.00	29.950 
07:25	32.9	32.9	32.9	73	25.2	2	7	248	0.00	29.952 
07:30	32.9	32.9	32.9	73	25.2	1	4	248	0.00	29.950 
07:35	33.1	33.1	33.1	73	25.4	2	7	248	0.00	29.950 
07:40	33.1	33.1	33.1	73	25.4	2	7	225	0.00	29.948 
07:45	33.1	33.1	33.1	73	25.4	1	6	248	0.00	29.948 
07:50	33.1	33.1	33.1	73	25.4	1	4	248	0.00	29.948 
07:55	33.1	33.1	33.1	73	25.4	1	5	225	0.00	29.945 
08:00	33.2	33.2	33.2	73	25.5	1	5	248	0.00	29.949 
08:05	33.4	33.4	33.4	73	25.7	2	4	270	0.00	29.949 
08:10	33.4	33.4	33.4	73	25.7	1	6	270	0.00	29.947 
08:15	33.5	33.5	33.5	73	25.8	1	4	248	0.00	29.945 
08:20	33.5	33.5	33.5	73	25.8	1	6	270	0.00	29.944 
08:25	33.8	33.8	33.8	73	26.1	2	6	248	0.00	29.942 
08:30	34.1	34.1	34.1	73	26.4	2	6	248	0.00	29.940 
08:35	34.3	34.3	34.3	72	26.2	2	4	270	0.00	29.939 
08:40	34.4	34.4	34.4	72	26.3	1	9	248	0.00	29.939 
08:45	34.4	34.4	34.4	72	26.3	1	5	270	0.00	29.941 
08:50	34.6	34.6	34.6	72	26.5	1	7	270	0.00	29.937 
08:55	34.6	34.6	34.6	72	26.5	3	9	248	0.00	29.937 
09:00	34.7	34.7	34.7	72	26.6	3	10	248	0.00	29.941 
09:05	34.9	34.9	34.9	71	26.5	3	9	248	0.00	29.943 
09:10	35.0	35.0	35.0	71	26.6	3	7	248	0.00	29.946 
09:15	35.0	35.0	35.0	71	26.6	2	6	248	0.00	29.946 
09:20	35.2	35.2	35.2	71	26.8	1	6	248	0.00	29.947 
09:25	35.2	35.2	35.2	71	26.8	1	6	225	0.00	29.947 
09:30	35.3	35.3	35.3	71	26.9	1	4	248	0.00	29.946 
09:35	35.6	35.6	35.6	71	27.1	1	5	270	0.00	29.940 
09:40	35.9	35.9	35.9	70	27.1	1	9	292	0.00	29.942 
09:45	36.2	36.2	36.2	69	27.0	2	6	248	0.00	29.939 
09:50	36.5	36.5	36.5	69	27.3	1	5	248	0.00	29.936 
09:55	36.8	36.8	36.8	68	27.2	3	7	248	0.00	29.936 
10:00	36.9	36.9	36.9	68	27.3	2	7	248	0.00	29.940 
10:05	37.2	37.2	37.2	68	27.6	2	7	248	0.00	29.937 
10:10	37.5	37.5	37.5	67	27.6	2	7	248	0.00	29.933 
10:15	37.8	37.8	37.8	67	27.8	2	6	248	0.00	29.932 
10:20	38.2	38.2	38.2	67	28.2	2	6	248	0.00	29.933 
10:25	38.5	38.5	38.5	65	27.8	3	10	248	0.00	29.932 
10:30	38.5	38.5	38.5	65	27.8	2	10	248	0.00	29.928 
10:35	38.5	38.5	38.5	65	27.8	3	11	248	0.00	29.926 
10:40	38.5	35.6	38.5	65	27.8	4	10	248	0.00	29.927 
10:45	38.6	38.6	38.6	66	28.2	2	6	270	0.00	29.920 
10:50	38.5	38.5	38.5	66	28.1	3	7	248	0.00	29.917 
10:55	38.8	38.8	38.8	66	28.4	2	5	225	0.00	29.917 
11:00	39.1	39.1	39.1	66	28.7	1	5	248	0.00	29.910 
11:05	39.3	39.3	39.3	65	28.5	2	9	270	0.00	29.907 
11:10	39.5	39.5	39.5	65	28.7	3	11	248	0.01	29.907 
11:15	39.6	39.6	39.6	67	29.6	2	7	315	0.00	29.905 
11:20	39.6	39.6	39.6	65	28.8	2	9	248	0.00	29.906 
11:25	39.8	39.8	39.8	67	29.8	1	5	90	0.00	29.900 
11:30	39.6	39.6	39.6	66	29.2	3	8	270	0.00	29.897 
11:35	39.9	39.9	39.9	66	29.5	3	6	248	0.00	29.895 
11:40	40.2	40.2	40.2	66	29.8	2	5	248	0.00	29.897 
11:45	40.2	40.2	40.2	66	29.8	3	9	270	0.00	29.894 
11:50	40.5	40.5	40.5	66	30.0	3	10	248	0.01	29.894 
11:55	40.5	40.5	40.5	65	29.7	3	10	248	0.00	29.893 
12:00	40.5	40.5	40.5	66	30.0	2	6	248	0.00	29.890 
12:05	40.6	40.6	40.6	66	30.1	3	7	248	0.00	29.889 
12:10	40.6	40.6	40.6	65	29.8	3	7	248	0.00	29.882 
12:15	40.5	40.5	40.5	66	30.0	3	10	248	0.00	29.878 
12:20	40.3	40.3	40.3	66	29.9	2	7	248	0.00	29.879 
12:25	40.1	40.1	40.1	67	30.0	2	7	248	0.00	29.878 
12:30	39.9	39.9	39.9	67	29.8	2	6	248	0.00	29.875 
12:35	39.9	39.9	39.9	68	30.2	1	6	248	0.00	29.875 
12:40	39.8	39.8	39.8	67	29.8	2	7	248	0.00	29.874 
12:45	39.6	39.6	39.6	68	29.9	1	5	225	0.00	29.871 
12:50	39.6	39.6	39.6	68	29.9	2	7	270	0.00	29.870 
12:55	39.5	39.5	39.5	68	29.8	2	7	248	0.00	29.868 
13:00	39.3	39.3	39.3	69	30.0	2	5	225	0.00	29.869 
13:05	39.2	39.2	39.2	69	29.9	3	7	248	0.00	29.868 
13:10	39.1	39.1	39.1	69	29.8	2	6	248	0.00	29.865 
13:15	39.1	39.1	39.1	69	29.8	2	6	248	0.00	29.865 
13:20	38.9	38.9	38.9	70	30.0	1	5	248	0.00	29.863 
13:25	38.8	38.8	38.8	70	29.9	1	3	248	0.00	29.862 
13:30	38.8	38.8	38.8	70	29.9	1	5	0	0.00	29.860 
13:35	38.6	38.6	38.6	71	30.0	2	5	68	0.00	29.851 
13:40	38.5	38.5	38.5	72	30.3	2	6	68	0.00	29.847 
13:45	38.5	38.5	38.5	73	30.6	1	2	292	0.00	29.846 
13:50	38.3	38.3	38.3	73	30.4	1	6	90	0.00	29.847 
13:55	38.3	38.3	38.3	73	30.4	1	5	315	0.00	29.848 
14:00	38.3	38.3	38.3	74	30.8	1	4	225	0.00	29.846 
14:05	38.0	38.0	38.0	76	31.1	2	7	90	0.00	29.845 
14:10	37.8	37.8	37.8	79	31.9	1	7	270	0.00	29.845 
14:15	37.5	37.5	37.5	81	32.2	2	8	90	0.00	29.843 
14:20	37.3	37.3	37.3	83	32.6	1	4	112	0.00	29.843 
14:25	37.2	37.2	37.2	84	32.8	1	3	292	0.00	29.845 
14:30	37.0	37.0	37.0	86	33.2	1	4	248	0.00	29.841 
14:35	37.0	37.0	37.0	86	33.2	1	4	90	0.00	29.842 
14:40	36.9	36.9	36.9	87	33.4	1	3	90	0.00	29.843 
14:45	36.9	36.9	36.9	87	33.4	1	5	90	0.00	29.840 
14:50	36.9	36.9	36.9	87	33.4	1	4	22	0.00	29.836 
14:55	36.9	36.9	36.9	87	33.4	1	4	22	0.00	29.834 
15:00	37.0	37.0	37.0	87	33.5	1	4	270	0.00	29.836 
15:05	37.0	37.0	37.0	86	33.2	1	5	270	0.00	29.831 
15:10	37.0	37.0	37.0	86	33.2	1	2	315	0.00	29.830 
15:15	37.2	37.2	37.2	86	33.4	1	3	338	0.00	29.829 
15:20	37.2	37.2	37.2	86	33.4	1	2	68	0.00	29.830 
15:25	37.2	37.2	37.2	87	33.7	0	3	68	0.00	29.830 
15:30	37.0	37.0	37.0	87	33.5	0	2	315	0.00	29.829 
15:35	37.0	37.0	37.0	88	33.8	1	3	315	0.00	29.828 
15:40	37.0	37.0	37.0	88	33.8	1	4	270	0.00	29.830 
15:45	36.9	36.9	36.9	89	34.0	1	6	248	0.00	29.830 
15:50	36.9	36.9	36.9	89	34.0	1	5	270	0.00	29.829 
15:55	36.9	36.9	36.9	90	34.2	2	7	270	0.00	29.829 
16:00	36.8	36.8	36.8	90	34.1	2	6	248	0.01	29.839 
16:05	36.8	36.8	36.8	91	34.4	1	6	248	0.00	29.839 
16:10	36.8	36.8	36.8	91	34.4	1	4	270	0.00	29.841 
16:15	36.8	36.8	36.8	91	34.4	1	4	248	0.00	29.843 
16:20	36.6	36.6	36.6	92	34.5	1	4	202	0.00	29.842 
16:25	36.8	36.8	36.8	92	34.7	2	5	248	0.00	29.843 
16:30	36.8	36.8	36.8	92	34.7	1	4	248	0.00	29.844 
16:35	36.8	36.8	36.8	92	34.7	1	5	248	0.00	29.844 
16:40	36.9	36.9	36.9	93	35.1	2	5	248	0.00	29.845 
16:45	36.9	36.9	36.9	93	35.1	2	6	248	0.01	29.849 
16:50	36.9	36.9	36.9	93	35.1	2	6	248	0.00	29.853 
16:55	36.9	36.9	36.9	93	35.1	2	6	248	0.00	29.857 
17:00	36.9	36.9	36.9	93	35.1	2	9	248	0.00	29.858 
17:05	36.9	36.9	36.9	93	35.1	3	9	248	0.00	29.859 
17:10	36.9	36.9	36.9	93	35.1	1	7	270	0.00	29.858 
17:15	36.9	36.9	36.9	94	35.3	2	6	248	0.00	29.848 
17:20	37.0	37.0	37.0	94	35.4	1	5	248	0.00	29.833 
17:25	37.0	37.0	37.0	94	35.4	2	7	270	0.00	29.842 
17:30	37.0	37.0	37.0	94	35.4	2	6	248	0.00	29.845 
17:35	37.0	37.0	37.0	94	35.4	2	9	248	0.00	29.846 
17:40	37.0	37.0	37.0	94	35.4	3	10	248	0.00	29.850 
17:45	37.0	37.0	37.0	94	35.4	2	7	248	0.01	29.845 
17:50	37.2	37.2	37.2	94	35.6	2	7	225	0.00	29.845 
17:55	37.2	37.2	37.2	94	35.6	1	4	248	0.00	29.845 
18:00	37.2	37.2	37.2	94	35.6	2	5	248	0.00	29.843 
18:05	37.2	37.2	37.2	94	35.6	1	6	248	0.00	29.838 
18:10	37.2	37.2	37.2	94	35.6	2	7	248	0.00	29.835 
18:15	37.3	37.3	37.3	94	35.7	1	7	248	0.00	29.838 
18:20	37.3	37.3	37.3	94	35.7	1	5	248	0.00	29.836 
18:25	37.3	37.3	37.3	94	35.7	2	7	248	0.00	29.841 
18:30	37.3	37.3	37.3	94	35.7	2	4	248	0.00	29.840 
18:35	37.3	37.3	37.3	94	35.7	2	5	248	0.00	29.841 
18:40	37.5	37.5	37.5	94	35.9	1	6	248	0.00	29.842 
18:45	37.5	37.5	37.5	94	35.9	2	5	248	0.00	29.844 
18:50	37.5	37.5	37.5	94	35.9	2	4	248	0.00	29.846 
18:55	37.5	37.5	37.5	94	35.9	2	5	248	0.00	29.848 
19:00	37.6	37.6	37.6	94	36.0	2	8	248	0.00	29.853 
19:05	37.6	37.6	37.6	94	36.0	2	10	248	0.00	29.851 
19:10	37.6	37.6	37.6	94	36.0	3	6	248	0.00	29.853 
19:15	37.6	37.6	37.6	94	36.0	2	8	225	0.00	29.855 
19:20	37.6	37.6	37.6	94	36.0	2	5	248	0.00	29.855 
19:25	37.6	37.6	37.6	94	36.0	2	6	248	0.00	29.857 
19:30	37.6	37.6	37.6	94	36.0	2	6	248	0.00	29.854 
19:35	37.6	37.6	37.6	94	36.0	1	4	248	0.00	29.849 
19:40	37.6	37.6	37.6	94	36.0	2	4	248	0.00	29.847 
19:45	37.6	37.6	37.6	94	36.0	2	4	248	0.00	29.848 
19:50	37.6	37.6	37.6	94	36.0	3	6	248	0.00	29.851 
19:55	37.6	37.6	37.6	94	36.0	1	5	248	0.00	29.856 
20:00	37.6	37.6	37.6	94	36.0	1	3	248	0.00	29.858 
20:05	37.6	37.6	37.6	94	36.0	2	5	248	0.00	29.856 
20:10	37.6	37.6	37.6	94	36.0	1	3	248	0.00	29.857 
20:15	37.5	37.5	37.5	94	35.9	2	6	248	0.01	29.855 
20:20	37.5	37.5	37.5	94	35.9	2	5	248	0.00	29.856 
20:25	37.3	37.3	37.3	94	35.7	3	8	248	0.00	29.856 
20:30	37.2	37.2	37.2	94	35.6	2	6	248	0.00	29.854 
20:35	37.0	37.0	37.0	94	35.4	2	9	248	0.00	29.853 
20:40	37.0	37.0	37.0	94	35.4	1	5	248	0.00	29.850 
20:45	37.0	37.0	37.0	94	35.4	2	6	248	0.00	29.851 
20:50	36.9	36.9	36.9	94	35.3	1	5	248	0.00	29.849 
20:55	36.9	36.9	36.9	94	35.3	1	5	248	0.01	29.851 
21:00	36.9	36.9	36.9	94	35.3	1	4	248	0.00	29.850 
21:05	36.9	36.9	36.9	94	35.3	1	4	248	0.00	29.848 
21:10	36.9	36.9	36.9	94	35.3	1	3	248	0.00	29.853 
21:15	36.9	36.9	36.9	94	35.3	1	4	248	0.00	29.852 
21:20	36.9	36.9	36.9	94	35.3	1	4	270	0.00	29.854 
21:25	36.9	36.9	36.9	94	35.3	1	5	248	0.00	29.850 
21:30	36.9	33.7	36.9	94	35.3	4	11	248	0.00	29.855 
21:35	36.8	36.8	36.8	94	35.2	2	5	225	0.00	29.856 
21:40	36.8	36.8	36.8	94	35.2	3	7	248	0.00	29.856 
21:45	36.6	36.6	36.6	94	35.0	2	5	248	0.00	29.855 
21:50	36.5	36.5	36.5	94	34.9	2	8	248	0.00	29.857 
21:55	36.5	36.5	36.5	94	34.9	2	5	248	0.00	29.857 
22:00	36.3	36.3	36.3	94	34.7	2	6	248	0.00	29.858 
22:05	36.2	36.2	36.2	94	34.6	2	6	248	0.00	29.858 
22:10	36.2	36.2	36.2	94	34.6	2	9	248	0.01	29.860 
22:15	36.0	36.0	36.0	94	34.4	3	7	248	0.00	29.863 
22:20	35.9	35.9	35.9	94	34.3	2	5	248	0.00	29.862 
22:25	35.9	35.9	35.9	94	34.3	2	7	248	0.00	29.868 
22:30	35.8	35.8	35.8	94	34.2	2	5	248	0.00	29.868 
22:35	35.8	35.8	35.8	94	34.2	1	4	248	0.01	29.869 
22:40	35.6	35.6	35.6	94	34.0	1	5	248	0.00	29.868 
22:45	35.5	35.5	35.5	94	33.9	1	4	292	0.00	29.870 
22:50	35.3	35.3	35.3	94	33.7	2	6	248	0.00	29.872 
22:55	35.3	35.3	35.3	94	33.7	2	4	248	0.00	29.877 
23:00	35.2	35.2	35.2	94	33.6	1	4	248	0.01	29.880 
23:05	35.0	35.0	35.0	94	33.5	2	4	248	0.00	29.873 
23:10	34.9	34.9	34.9	94	33.4	1	6	248	0.00	29.873 
23:15	34.9	34.9	34.9	94	33.4	2	7	248	0.00	29.884 
23:20	34.9	34.9	34.9	94	33.4	2	5	248	0.00	29.884 
23:25	34.7	34.7	34.7	94	33.2	2	5	248	0.01	29.887 
23:30	34.6	34.6	34.6	94	33.1	2	7	248	0.00	29.893 
23:35	34.4	34.4	34.4	94	32.9	2	5	248	0.00	29.904 
23:40	34.3	34.3	34.3	94	32.8	1	6	248	0.01	29.903 
23:45	34.3	34.3	34.3	94	32.8	2	5	248	0.00	29.911 
23:50	34.1	34.1	34.1	94	32.6	1	5	248	0.00	29.904 
23:55	34.1	34.1	34.1	94	32.6	1	3	248	0.00	29.904 

CoCoRaHS
IN-AL-39
A2 Web Hosting
Creative Commons License
GoDaddy
search engine by freefind advanced

loaded 2018-11-12 19:08:52 • last modified 2010-11-18 10:43:29
Privacy PolicyDisclaimer
• wx.awcolley.com is powered by PmWiki v.2002016 •
• all content (unless otherwise noted) © 2018 A W Colley